Alton, Iowa
Current Conditions -  °F | °C
As of 9:55 PM on Wednesday 22 Oct 2014 (Local Time) from KORC Reporting Station
Overcast Overcast  
Wind Chill: 61°   Ceiling: 200
Heat Index: 61°   Visibility: 7mi
Dew Point: 57°   Wind: 5mph
Humidity: 88%   Direction: 180°S
Pressure: 30.04"   Gusts: NA
Location:  42.99°N, 96.01°W
Report Text: KORC 230255Z AUTO 18004KT 7SM BKN002 OVC008 16/14 A3004 RMK AO2
Loading
Personal Weather Stations






























Interactive Weather Map
Tropical Storm Tracking
New forecast layout! Learn more

10-Day Weather Forecast

Advertisements
Track Severe Weather on mobile